Time;durP1;ratioP1;P1;durP2;ratioP2;P2;SDS_P1;SDS_P2;PMS_P1;PMS_P2;Temp;Humidity;BMP_temperature;BMP_pressure;BME280_temperature;BME280_humidity;BME280_pressure;Samples;Min_cycle;Max_cycle;Signal;HPM_P1;HPM_P2
2022/01/20 00:00:03;;;;;;;22.13;9.25;;;;;;;3.66;100.00;101554.03;836653;23;930;-52
2022/01/20 00:00:33;;;;;;;26.98;9.32;;;;;;;3.63;100.00;101559.09;834340;23;5349;-54
2022/01/20 00:01:07;;;;;;;23.40;8.80;;;;;;;3.61;100.00;101558.13;836580;23;855;-53
2022/01/20 00:01:44;;;;;;;24.25;9.00;;;;;;;3.58;100.00;101558.03;837013;23;737;-53
2022/01/20 00:02:05;;;;;;;25.38;9.25;;;;;;;3.57;100.00;101561.41;836109;23;957;-54
2022/01/20 00:02:28;;;;;;;25.75;9.60;;;;;;;3.53;100.00;101563.03;837034;23;989;-55
2022/01/20 00:02:57;;;;;;;26.08;9.35;;;;;;;3.51;100.00;101558.63;837049;23;963;-54
2022/01/20 00:03:22;;;;;;;24.63;9.10;;;;;;;3.52;100.00;101562.97;830654;23;4260;-55
2022/01/20 00:03:43;;;;;;;23.33;9.23;;;;;;;3.51;100.00;101561.19;831658;23;818;-52
2022/01/20 00:04:12;;;;;;;25.25;9.30;;;;;;;3.50;100.00;101555.16;832755;23;942;-54
2022/01/20 00:09:12;;;;;;;24.33;8.82;;;;;;;3.46;100.00;101571.38;835276;23;927;-53
2022/01/20 00:09:51;;;;;;;24.95;9.68;;;;;;;3.46;100.00;101570.47;835104;23;4871;-52
2022/01/20 00:26:12;;;;;;;20.05;7.85;;;;;;;3.01;100.00;101561.84;835150;23;971;-51
2022/01/20 00:26:44;;;;;;;22.55;8.25;;;;;;;2.93;100.00;101564.94;836036;23;1029;-54
2022/01/20 00:27:09;;;;;;;23.55;8.68;;;;;;;2.87;100.00;101565.56;836407;23;4243;-56
2022/01/20 00:27:32;;;;;;;21.15;8.40;;;;;;;2.93;100.00;101565.81;837055;23;804;-54
2022/01/20 00:27:57;;;;;;;23.15;8.20;;;;;;;2.96;100.00;101565.94;836260;23;818;-54
2022/01/20 00:28:25;;;;;;;23.77;8.15;;;;;;;2.93;100.00;101573.56;835014;23;800;-51
2022/01/20 00:28:51;;;;;;;21.67;8.25;;;;;;;2.92;100.00;101568.34;832015;23;899;-55
2022/01/20 00:29:20;;;;;;;21.30;8.10;;;;;;;2.88;100.00;101575.06;833427;23;860;-52
2022/01/20 00:30:52;;;;;;;25.05;8.75;;;;;;;2.92;100.00;101570.91;829517;23;876;-52
2022/01/20 00:31:44;;;;;;;20.50;8.10;;;;;;;3.00;100.00;101566.94;834602;23;919;-51
2022/01/20 00:32:09;;;;;;;21.48;8.35;;;;;;;2.96;100.00;101565.06;835160;23;747;-59
2022/01/20 00:32:45;;;;;;;22.27;8.55;;;;;;;2.92;100.00;101570.91;836551;23;982;-52
2022/01/20 00:33:45;;;;;;;22.45;7.85;;;;;;;2.96;100.00;101571.09;836116;23;935;-52
2022/01/20 00:34:18;;;;;;;23.33;7.85;;;;;;;3.00;100.00;101572.97;835782;23;1048;-52
2022/01/20 00:35:31;;;;;;;25.02;7.53;;;;;;;3.03;100.00;101573.13;833759;23;1178;-53
2022/01/20 00:37:16;;;;;;;21.70;7.15;;;;;;;3.02;100.00;101581.69;836764;23;908;-52
2022/01/20 00:37:37;;;;;;;21.95;7.35;;;;;;;2.98;100.00;101582.38;829911;23;935;-55
2022/01/20 00:37:57;;;;;;;19.47;7.97;;;;;;;2.96;100.00;101581.41;828126;23;1322;-52
2022/01/20 00:38:18;;;;;;;19.90;7.63;;;;;;;2.95;100.00;101577.09;832336;23;1478;-51
2022/01/20 00:38:42;;;;;;;19.90;7.50;;;;;;;2.94;100.00;101590.81;826308;23;1210;-52
2022/01/20 00:39:04;;;;;;;21.58;7.97;;;;;;;2.86;100.00;101584.47;828442;23;4405;-52
2022/01/20 00:39:26;;;;;;;22.17;7.43;;;;;;;2.80;100.00;101581.63;824766;23;947;-54
2022/01/20 00:39:47;;;;;;;22.85;7.80;;;;;;;2.80;100.00;101586.81;828765;23;824;-51
2022/01/20 00:40:08;;;;;;;18.10;7.25;;;;;;;2.84;100.00;101583.53;833896;23;808;-54
2022/01/20 00:40:29;;;;;;;21.23;7.55;;;;;;;2.82;100.00;101588.59;833765;23;788;-54
2022/01/20 00:40:50;;;;;;;19.77;7.18;;;;;;;2.79;100.00;101585.03;831555;23;1166;-51
2022/01/20 00:41:15;;;;;;;19.45;7.13;;;;;;;2.80;100.00;101590.25;831956;23;722;-61
2022/01/20 00:41:35;;;;;;;21.38;7.03;;;;;;;2.86;100.00;101592.22;832208;23;942;-52
2022/01/20 00:41:56;;;;;;;22.50;7.27;;;;;;;2.87;100.00;101583.66;831952;23;792;-51
2022/01/20 00:42:16;;;;;;;20.83;7.50;;;;;;;2.82;100.00;101586.03;826284;23;4718;-53
2022/01/20 00:42:37;;;;;;;22.20;7.55;;;;;;;2.82;100.00;101588.59;829833;23;876;-54
2022/01/20 00:42:57;;;;;;;23.67;7.57;;;;;;;2.84;100.00;101584.41;832687;23;920;-53
2022/01/20 00:43:18;;;;;;;21.00;7.07;;;;;;;2.82;100.00;101583.44;832087;23;884;-51
2022/01/20 00:43:38;;;;;;;19.52;7.00;;;;;;;2.78;100.00;101581.53;831785;23;1220;-52
2022/01/20 00:43:59;;;;;;;20.27;6.97;;;;;;;2.75;100.00;101583.13;832252;23;816;-54
2022/01/20 00:44:19;;;;;;;22.75;7.20;;;;;;;2.75;100.00;101590.88;837141;23;785;-54
2022/01/20 00:44:39;;;;;;;20.20;6.73;;;;;;;2.73;100.00;101581.38;831561;23;1201;-55
2022/01/20 00:45:01;;;;;;;18.20;6.47;;;;;;;2.73;100.00;101580.50;831977;23;4322;-52
2022/01/20 00:45:21;;;;;;;16.25;6.38;;;;;;;2.74;100.00;101577.06;832082;23;828;-51
2022/01/20 00:45:41;;;;;;;21.20;7.33;;;;;;;2.78;100.00;101580.66;833940;23;920;-51
2022/01/20 00:46:02;;;;;;;23.83;7.22;;;;;;;2.76;100.00;101579.75;831878;23;907;-52
2022/01/20 00:46:22;;;;;;;23.07;7.13;;;;;;;2.78;100.00;101578.09;831383;23;785;-54
2022/01/20 00:46:44;;;;;;;21.40;7.00;;;;;;;2.80;100.00;101581.63;837365;23;864;-53
2022/01/20 00:47:04;;;;;;;21.42;7.13;;;;;;;2.80;100.00;101581.63;831575;23;813;-53
2022/01/20 00:47:25;;;;;;;19.73;7.07;;;;;;;2.78;100.00;101576.38;832262;23;892;-53
2022/01/20 00:47:45;;;;;;;20.23;6.93;;;;;;;2.79;100.00;101577.28;832585;23;926;-52
2022/01/20 00:48:06;;;;;;;21.25;7.50;;;;;;;2.72;100.00;101574.44;830725;23;4472;-51
2022/01/20 00:48:27;;;;;;;21.20;6.50;;;;;;;2.66;100.00;101579.34;831389;23;1217;-55
2022/01/20 00:48:47;;;;;;;18.13;6.60;;;;;;;2.67;100.00;101575.97;828007;23;727;-52
2022/01/20 00:49:07;;;;;;;15.90;6.60;;;;;;;2.73;100.00;101576.19;833048;23;748;-51
2022/01/20 00:49:29;;;;;;;17.13;6.40;;;;;;;2.68;100.00;101572.53;832220;23;871;-53
2022/01/20 00:49:50;;;;;;;20.80;6.88;;;;;;;2.69;100.00;101576.88;831888;23;848;-51
2022/01/20 00:50:11;;;;;;;20.88;6.82;;;;;;;2.70;100.00;101578.66;831431;23;1121;-55
2022/01/20 00:50:35;;;;;;;18.77;6.30;;;;;;;2.74;100.00;101571.91;831404;23;1253;-54
2022/01/20 00:50:55;;;;;;;20.65;6.90;;;;;;;2.71;100.00;101572.69;837012;23;1026;-51
2022/01/20 00:51:15;;;;;;;19.77;6.50;;;;;;;2.75;100.00;101578.84;835202;23;4276;-52
2022/01/20 00:51:36;;;;;;;20.30;6.93;;;;;;;2.76;100.00;101574.59;834850;23;927;-56
2022/01/20 00:51:57;;;;;;;21.02;7.00;;;;;;;2.68;100.00;101577.69;837231;23;765;-53
2022/01/20 00:52:17;;;;;;;18.30;6.37;;;;;;;2.69;100.00;101579.47;836519;23;839;-53
2022/01/20 00:52:37;;;;;;;24.80;6.72;;;;;;;2.72;100.00;101574.44;831858;23;876;-59
2022/01/20 00:52:58;;;;;;;21.80;6.43;;;;;;;2.66;100.00;101571.59;832650;23;1649;-53
2022/01/20 00:53:18;;;;;;;21.73;6.65;;;;;;;2.62;100.00;101580.03;832640;23;911;-52
2022/01/20 00:53:43;;;;;;;18.07;6.50;;;;;;;2.66;100.00;101571.59;830495;23;912;-54
2022/01/20 00:54:04;;;;;;;16.98;6.35;;;;;;;2.70;100.00;101581.25;829743;23;4221;-53
2022/01/20 00:54:24;;;;;;;17.40;6.28;;;;;;;2.70;100.00;101581.25;834605;23;864;-55
2022/01/20 00:54:45;;;;;;;20.75;6.55;;;;;;;2.67;100.00;101581.13;836267;23;939;-53
2022/01/20 00:55:06;;;;;;;22.90;6.73;;;;;;;2.64;100.00;101582.69;834935;23;1188;-53
2022/01/20 00:55:27;;;;;;;20.50;6.55;;;;;;;2.62;100.00;101577.44;834774;23;1372;-53
2022/01/20 00:55:49;;;;;;;20.60;6.45;;;;;;;2.63;100.00;101589.56;835938;23;836;-55
2022/01/20 00:56:11;;;;;;;23.70;6.57;;;;;;;2.64;100.00;101588.72;830343;23;2552;-51
2022/01/20 00:56:32;;;;;;;19.83;7.15;;;;;;;2.61;100.00;101590.31;833696;23;824;-51
2022/01/20 00:56:52;;;;;;;21.63;6.67;;;;;;;2.57;100.00;101589.28;833348;23;920;-52
2022/01/20 00:57:13;;;;;;;21.15;6.40;;;;;;;2.59;100.00;101594.50;830572;23;4280;-52
2022/01/20 00:57:34;;;;;;;18.67;6.20;;;;;;;2.53;100.00;101589.97;832236;23;723;-51
2022/01/20 00:57:54;;;;;;;17.33;6.20;;;;;;;2.48;100.00;101589.78;832354;23;1213;-52
2022/01/20 00:58:15;;;;;;;19.83;6.83;;;;;;;2.51;100.00;101589.03;833878;23;816;-53
2022/01/20 00:58:35;;;;;;;20.57;6.80;;;;;;;2.57;100.00;101594.44;836015;23;632;-53
2022/01/20 00:58:55;;;;;;;22.10;6.63;;;;;;;2.53;100.00;101592.53;835367;23;1957;-53
2022/01/20 00:59:16;;;;;;;19.33;6.80;;;;;;;2.49;100.00;101593.22;833625;23;773;-54
2022/01/20 00:59:37;;;;;;;24.50;7.00;;;;;;;2.47;100.00;101592.28;834129;23;744;-56
2022/01/20 00:59:57;;;;;;;18.42;6.97;;;;;;;2.50;100.00;101593.28;835916;23;964;-52
2022/01/20 01:00:18;;;;;;;16.05;6.70;;;;;;;2.54;100.00;101586.56;830641;23;4403;-52
2022/01/20 01:00:39;;;;;;;19.20;6.90;;;;;;;2.54;100.00;101590.03;833538;23;963;-53
2022/01/20 01:00:59;;;;;;;24.27;7.10;;;;;;;2.52;100.00;101588.19;832259;23;856;-55
2022/01/20 01:01:19;;;;;;;24.70;7.40;;;;;;;2.55;100.00;101581.47;831395;23;1467;-58
2022/01/20 01:01:40;;;;;;;22.77;7.03;;;;;;;2.57;100.00;101588.41;826591;23;1176;-51
2022/01/20 01:02:03;;;;;;;22.63;7.22;;;;;;;2.59;100.00;101585.06;829799;23;678;-52
2022/01/20 01:02:24;;;;;;;21.27;7.30;;;;;;;2.65;100.00;101587.91;828695;23;967;-51
2022/01/20 01:02:44;;;;;;;21.27;7.20;;;;;;;2.68;100.00;101588.03;830413;23;765;-53
2022/01/20 01:03:05;;;;;;;21.42;7.20;;;;;;;2.62;100.00;101590.34;831703;23;4213;-52
2022/01/20 01:03:25;;;;;;;21.40;6.50;;;;;;;2.57;100.00;101591.84;830102;23;1480;-52
2022/01/20 01:03:46;;;;;;;20.73;6.30;;;;;;;2.56;100.00;101587.50;831401;23;1410;-53
2022/01/20 01:04:07;;;;;;;20.07;6.67;;;;;;;2.56;100.00;101590.09;831711;23;1267;-51
2022/01/20 01:04:27;;;;;;;18.27;6.47;;;;;;;2.55;100.00;101588.34;833039;23;888;-51
2022/01/20 01:04:48;;;;;;;19.20;6.95;;;;;;;2.52;100.00;101599.41;832828;23;777;-54
2022/01/20 01:05:10;;;;;;;24.57;7.33;;;;;;;2.45;100.00;101592.22;834474;23;876;-52
2022/01/20 01:05:33;;;;;;;26.08;7.32;;;;;;;2.49;100.00;101600.97;835756;23;958;-52
2022/01/20 01:06:14;;;;;;;20.08;6.85;;;;;;;2.50;100.00;101597.56;837325;23;778;-53
2022/01/20 01:07:56;;;;;;;21.80;6.47;;;;;;;2.42;100.00;101598.94;836899;23;809;-51
2022/01/20 01:08:16;;;;;;;19.23;6.80;;;;;;;2.48;100.00;101594.03;837019;23;912;-54
2022/01/20 01:08:38;;;;;;;21.07;6.83;;;;;;;2.47;100.00;101597.44;835192;23;1241;-53
2022/01/20 01:08:58;;;;;;;19.38;6.45;;;;;;;2.47;100.00;101595.75;837570;23;986;-51
2022/01/20 01:09:19;;;;;;;19.83;6.80;;;;;;;2.47;100.00;101600.03;827828;23;4440;-54
2022/01/20 01:09:40;;;;;;;25.37;7.30;;;;;;;2.36;100.00;101597.84;832887;23;837;-52
2022/01/20 01:10:01;;;;;;;21.67;7.20;;;;;;;2.37;100.00;101596.19;831821;23;912;-54
2022/01/20 01:10:26;;;;;;;20.43;7.10;;;;;;;2.44;100.00;101597.28;832133;23;737;-53
2022/01/20 01:10:49;;;;;;;23.38;7.07;;;;;;;2.46;100.00;101593.09;827499;23;2191;-53
2022/01/20 01:11:10;;;;;;;22.90;7.22;;;;;;;2.46;100.00;101599.13;824429;23;1973;-54
2022/01/20 01:11:30;;;;;;;24.90;7.10;;;;;;;2.50;100.00;101592.41;827847;23;757;-52
2022/01/20 01:11:55;;;;;;;25.33;6.80;;;;;;;2.48;100.00;101594.03;823592;23;818;-50
2022/01/20 01:12:23;;;;;;;22.50;6.70;;;;;;;2.45;100.00;101596.50;826534;23;4365;-52
2022/01/20 01:13:15;;;;;;;27.15;7.07;;;;;;;2.52;100.00;101595.94;832745;23;1133;-52
2022/01/20 01:13:36;;;;;;;23.13;6.80;;;;;;;2.53;100.00;101598.59;827394;23;2015;-51
2022/01/20 01:13:58;;;;;;;23.60;6.72;;;;;;;2.52;100.00;101598.50;827861;23;1316;-54
2022/01/20 01:14:20;;;;;;;25.83;6.78;;;;;;;2.50;100.00;101602.75;828370;23;967;-54
2022/01/20 01:14:46;;;;;;;23.38;6.70;;;;;;;2.50;100.00;101597.56;826411;23;888;-52
2022/01/20 01:15:14;;;;;;;24.02;6.82;;;;;;;2.47;100.00;101598.31;828192;23;4573;-56
2022/01/20 01:15:39;;;;;;;23.67;6.60;;;;;;;2.51;100.00;101601.94;827506;23;856;-54
2022/01/20 01:16:00;;;;;;;20.63;6.47;;;;;;;2.51;100.00;101604.50;826357;23;663;-51
2022/01/20 01:16:24;;;;;;;20.27;6.63;;;;;;;2.50;100.00;101603.59;824433;23;857;-53
2022/01/20 01:20:27;;;;;;;22.25;6.40;;;;;;;2.50;100.00;101602.75;833745;23;920;-51
2022/01/20 01:21:42;;;;;;;23.92;6.20;;;;;;;2.41;100.00;101600.66;834882;23;5115;-51
2022/01/20 01:22:29;;;;;;;21.17;6.85;;;;;;;2.42;100.00;101604.09;835211;23;911;-53
2022/01/20 01:22:50;;;;;;;22.73;6.38;;;;;;;2.42;100.00;101598.94;834677;23;1225;-52
2022/01/20 01:23:10;;;;;;;23.60;6.07;;;;;;;2.44;100.00;101605.03;836859;23;777;-55
2022/01/20 01:23:36;;;;;;;24.35;6.70;;;;;;;2.43;100.00;101600.72;831163;23;1133;-51
2022/01/20 01:23:57;;;;;;;22.00;6.20;;;;;;;2.42;100.00;101601.53;833601;23;1165;-53
2022/01/20 01:24:17;;;;;;;27.10;6.33;;;;;;;2.43;100.00;101601.59;831231;23;5036;-53
2022/01/20 01:24:42;;;;;;;24.75;6.10;;;;;;;2.45;100.00;101602.56;830171;23;895;-56
2022/01/20 01:25:04;;;;;;;25.23;6.25;;;;;;;2.48;100.00;101604.34;826597;23;1574;-51
2022/01/20 01:25:24;;;;;;;26.13;5.75;;;;;;;2.46;100.00;101604.28;829119;23;1375;-53
2022/01/20 01:25:45;;;;;;;26.97;6.43;;;;;;;2.45;100.00;101601.66;833627;23;797;-51
2022/01/20 01:26:10;;;;;;;25.50;6.40;;;;;;;2.43;100.00;101604.16;829484;23;1156;-52
2022/01/20 01:26:30;;;;;;;21.55;6.07;;;;;;;2.41;100.00;101603.22;826304;23;1644;-51
2022/01/20 01:26:50;;;;;;;20.00;6.20;;;;;;;2.44;100.00;101607.63;832798;23;1227;-51
2022/01/20 01:27:13;;;;;;;21.88;6.10;;;;;;;2.43;100.00;101604.16;830823;23;4445;-55
2022/01/20 01:27:38;;;;;;;24.15;6.35;;;;;;;2.42;100.00;101610.13;834884;23;1852;-52
2022/01/20 01:27:59;;;;;;;23.35;5.90;;;;;;;2.42;100.00;101604.97;835253;23;1427;-53
2022/01/20 01:28:22;;;;;;;20.95;5.82;;;;;;;2.42;100.00;101601.53;830011;23;1243;-53
2022/01/20 01:28:43;;;;;;;23.13;5.85;;;;;;;2.40;100.00;101603.16;831220;23;2246;-53
2022/01/20 01:29:17;;;;;;;20.80;5.80;;;;;;;2.38;100.00;101603.97;835587;23;819;-52
2022/01/20 01:31:34;;;;;;;22.80;5.82;;;;;;;2.42;100.00;101599.81;827287;23;1356;-54
2022/01/20 01:31:54;;;;;;;24.80;6.03;;;;;;;2.45;100.00;101606.81;827539;23;1295;-51
2022/01/20 01:32:18;;;;;;;24.83;5.70;;;;;;;2.47;100.00;101600.03;826990;23;770;-55
2022/01/20 01:33:07;;;;;;;23.05;5.72;;;;;;;2.47;100.00;101597.44;836742;23;4547;-55
2022/01/20 01:33:30;;;;;;;26.13;5.38;;;;;;;2.46;100.00;101593.09;835355;23;800;-52
2022/01/20 01:33:57;;;;;;;25.10;5.22;;;;;;;2.48;100.00;101599.19;833034;23;1230;-52
2022/01/20 01:34:17;;;;;;;23.08;5.38;;;;;;;2.47;100.00;101597.44;836512;23;805;-54
2022/01/20 01:34:40;;;;;;;20.50;5.13;;;;;;;2.49;100.00;101595.81;832081;23;1249;-51
2022/01/20 01:35:05;;;;;;;24.10;5.30;;;;;;;2.49;100.00;101594.13;830204;23;1241;-52
2022/01/20 01:35:27;;;;;;;25.73;5.30;;;;;;;2.48;100.00;101594.03;835375;23;2051;-54
2022/01/20 01:35:55;;;;;;;24.70;5.28;;;;;;;2.54;100.00;101589.16;834806;23;1352;-51
2022/01/20 01:36:19;;;;;;;21.60;5.18;;;;;;;2.53;100.00;101587.38;833967;23;4221;-53
2022/01/20 01:38:39;;;;;;;18.83;5.00;;;;;;;2.47;100.00;101589.72;834046;23;998;-52
2022/01/20 01:38:59;;;;;;;26.90;5.68;;;;;;;2.48;100.00;101588.88;831774;23;1897;-51
2022/01/20 01:39:21;;;;;;;28.35;5.28;;;;;;;2.50;100.00;101587.25;835035;23;5284;-53
2022/01/20 01:39:42;;;;;;;23.07;5.23;;;;;;;2.51;100.00;101586.44;835656;23;793;-55
2022/01/20 01:40:09;;;;;;;25.00;5.25;;;;;;;2.51;100.00;101595.06;834603;23;1351;-55
2022/01/20 01:40:31;;;;;;;26.92;5.20;;;;;;;2.51;100.00;101589.03;832468;23;1344;-53
2022/01/20 01:40:51;;;;;;;25.38;5.25;;;;;;;2.48;100.00;101586.28;829995;23;793;-52
2022/01/20 01:41:16;;;;;;;22.97;4.97;;;;;;;2.52;100.00;101588.19;829481;23;1134;-56
2022/01/20 01:41:37;;;;;;;24.52;5.15;;;;;;;2.54;100.00;101589.16;834147;23;1505;-52
2022/01/20 01:41:59;;;;;;;24.58;5.05;;;;;;;2.53;100.00;101589.97;830955;23;1230;-51
2022/01/20 01:42:26;;;;;;;21.75;4.78;;;;;;;2.54;100.00;101594.31;817610;24;4981;-53
2022/01/20 01:42:49;;;;;;;23.45;4.90;;;;;;;2.49;100.00;101595.81;821328;23;1355;-54
2022/01/20 01:43:18;;;;;;;23.83;4.50;;;;;;;2.49;100.00;101594.13;823789;23;1103;-52
2022/01/20 01:43:41;;;;;;;23.20;5.38;;;;;;;2.51;100.00;101592.47;817534;23;2120;-52
2022/01/20 01:44:07;;;;;;;22.17;5.30;;;;;;;2.48;100.00;101597.50;829566;23;825;-52
2022/01/20 01:44:30;;;;;;;21.15;4.68;;;;;;;2.51;100.00;101592.47;830849;23;1282;-50
2022/01/20 01:44:53;;;;;;;23.75;4.90;;;;;;;2.50;100.00;101600.16;831592;23;1701;-53
2022/01/20 01:45:18;;;;;;;22.35;4.70;;;;;;;2.51;100.00;101594.19;830372;23;4338;-53
2022/01/20 01:45:41;;;;;;;25.65;5.18;;;;;;;2.50;100.00;101601.03;830816;23;1068;-51
2022/01/20 01:46:05;;;;;;;26.20;4.88;;;;;;;2.46;100.00;101603.41;831110;23;1344;-51
2022/01/20 01:46:29;;;;;;;21.13;4.47;;;;;;;2.45;100.00;101601.66;835265;23;1540;-54
2022/01/20 01:46:51;;;;;;;20.48;4.35;;;;;;;2.46;100.00;101596.56;831017;23;1337;-54
2022/01/20 01:47:12;;;;;;;19.50;4.60;;;;;;;2.43;100.00;101605.88;822339;23;1097;-52
2022/01/20 01:47:32;;;;;;;17.73;4.20;;;;;;;2.42;100.00;101606.69;829554;23;1373;-52
2022/01/20 01:47:54;;;;;;;24.07;4.43;;;;;;;2.38;100.00;101605.66;836347;23;1255;-51
2022/01/20 01:48:16;;;;;;;21.80;4.50;;;;;;;2.37;100.00;101606.50;838578;23;4384;-52
2022/01/20 01:48:41;;;;;;;20.25;4.47;;;;;;;2.36;100.00;101609.88;834929;23;1101;-55
2022/01/20 01:49:01;;;;;;;18.40;4.18;;;;;;;2.34;100.00;101604.66;832291;23;1240;-51
2022/01/20 01:49:21;;;;;;;24.98;4.50;;;;;;;2.33;100.00;101609.75;827881;23;1333;-52
2022/01/20 01:49:43;;;;;;;21.92;4.47;;;;;;;2.30;100.00;101610.50;823776;23;1859;-52
2022/01/20 01:50:05;;;;;;;19.50;4.50;;;;;;;2.26;100.00;101606.00;822494;23;1670;-52
2022/01/20 01:50:26;;;;;;;20.38;4.47;;;;;;;2.26;100.00;101608.59;830606;23;1482;-52
2022/01/20 01:50:47;;;;;;;20.65;4.28;;;;;;;2.29;100.00;101608.72;832225;23;1366;-51
2022/01/20 01:51:10;;;;;;;23.73;4.50;;;;;;;2.33;100.00;101608.03;831037;23;4317;-52
2022/01/20 01:51:33;;;;;;;18.85;4.38;;;;;;;2.29;100.00;101608.72;833519;23;1524;-51
2022/01/20 01:51:53;;;;;;;15.80;4.13;;;;;;;2.30;100.00;101600.19;829247;23;1365;-52
2022/01/20 01:52:14;;;;;;;18.58;4.15;;;;;;;2.29;100.00;101608.72;831020;23;1250;-52
2022/01/20 01:52:34;;;;;;;23.75;4.68;;;;;;;2.28;100.00;101606.06;828088;23;1546;-52
2022/01/20 01:52:57;;;;;;;20.43;4.40;;;;;;;2.28;100.00;101611.25;836045;23;1251;-54
2022/01/20 01:53:17;;;;;;;21.27;4.60;;;;;;;2.31;100.00;101609.69;827580;23;1199;-54
2022/01/20 01:53:39;;;;;;;16.00;4.43;;;;;;;2.33;100.00;101610.63;823325;23;1304;-55
2022/01/20 01:54:02;;;;;;;18.15;4.10;;;;;;;2.32;100.00;101608.84;830852;23;4801;-53
2022/01/20 01:54:24;;;;;;;22.48;4.60;;;;;;;2.29;100.00;101613.00;829698;23;1434;-55
2022/01/20 01:54:44;;;;;;;17.27;4.53;;;;;;;2.26;100.00;101608.59;831450;23;1228;-53
2022/01/20 01:55:06;;;;;;;17.65;4.57;;;;;;;2.28;100.00;101614.69;832454;23;1680;-54
2022/01/20 01:55:29;;;;;;;23.48;4.80;;;;;;;2.27;100.00;101606.88;835407;23;1240;-53
2022/01/20 01:55:52;;;;;;;21.70;4.55;;;;;;;2.25;100.00;101608.53;837813;23;817;-54
2022/01/20 01:56:13;;;;;;;21.60;4.60;;;;;;;2.27;100.00;101614.63;837711;23;1721;-54
2022/01/20 01:56:35;;;;;;;19.80;4.38;;;;;;;2.29;100.00;101611.31;834106;23;1205;-51
2022/01/20 01:56:58;;;;;;;20.08;4.72;;;;;;;2.27;100.00;101612.94;828636;23;1196;-54
2022/01/20 01:57:27;;;;;;;17.63;4.97;;;;;;;2.28;100.00;101603.50;826359;23;4868;-50
2022/01/20 01:57:47;;;;;;;18.70;4.80;;;;;;;2.29;100.00;101607.84;819746;23;1351;-55
2022/01/20 01:58:11;;;;;;;24.48;5.10;;;;;;;2.27;100.00;101606.88;822863;23;1491;-52
2022/01/20 01:58:41;;;;;;;23.00;4.75;;;;;;;2.27;100.00;101610.38;826370;23;1392;-55
2022/01/20 01:59:08;;;;;;;19.60;4.78;;;;;;;2.19;100.00;101601.41;824915;23;1196;-54
2022/01/20 01:59:42;;;;;;;21.50;4.43;;;;;;;2.18;100.00;101605.66;828907;23;1674;-52
2022/01/20 02:00:15;;;;;;;19.08;4.53;;;;;;;2.21;100.00;101599.75;834917;23;4724;-51
2022/01/20 02:00:40;;;;;;;16.75;4.30;;;;;;;2.20;100.00;101601.47;828818;23;843;-53
2022/01/20 02:01:01;;;;;;;16.08;4.28;;;;;;;2.24;100.00;101599.00;826011;23;1233;-52
2022/01/20 02:01:22;;;;;;;18.65;4.22;;;;;;;2.26;100.00;101599.94;823793;23;2137;-53
2022/01/20 02:01:42;;;;;;;21.07;4.53;;;;;;;2.25;100.00;101601.66;828121;23;1186;-51
2022/01/20 02:02:04;;;;;;;18.92;4.38;;;;;;;2.22;100.00;101593.78;824827;23;1642;-53
2022/01/20 02:02:27;;;;;;;19.85;4.72;;;;;;;2.24;100.00;101599.88;828648;23;1620;-55
2022/01/20 02:02:48;;;;;;;16.60;4.67;;;;;;;2.26;100.00;101597.38;833110;23;745;-59
2022/01/20 02:03:24;;;;;;;25.35;6.20;;;;;;;2.29;100.00;101598.41;835343;23;4892;-52
2022/01/20 02:04:00;;;;;;;24.90;5.93;;;;;;;2.26;100.00;101593.13;836008;23;1027;-56
2022/01/20 02:04:27;;;;;;;29.98;6.13;;;;;;;2.24;100.00;101597.31;834980;23;976;-54
2022/01/20 02:05:11;;;;;;;23.25;5.68;;;;;;;2.26;100.00;101590.53;834656;23;971;-51
2022/01/20 02:05:57;;;;;;;24.45;5.80;;;;;;;2.25;100.00;101587.88;831019;23;1080;-51
2022/01/20 02:07:49;;;;;;;28.58;6.53;;;;;;;2.22;100.00;101586.06;835756;23;1480;-54
2022/01/20 02:08:24;;;;;;;24.48;6.00;;;;;;;2.22;100.00;101592.09;834565;23;1403;-54
2022/01/20 02:09:02;;;;;;;24.30;6.00;;;;;;;2.26;100.00;101590.53;832172;23;1592;-52
2022/01/20 02:18:55;;;;;;;32.95;7.95;;;;;;;2.24;100.00;101589.56;830698;23;1943;-54
2022/01/20 02:19:35;;;;;;;29.15;6.97;;;;;;;2.25;100.00;101591.34;827016;23;1274;-51
2022/01/20 02:20:19;;;;;;;27.02;6.57;;;;;;;2.21;100.00;101594.59;829964;23;1395;-54
2022/01/20 02:21:00;;;;;;;30.77;7.25;;;;;;;2.18;100.00;101597.06;834561;23;4711;-52
2022/01/20 02:21:20;;;;;;;26.80;7.00;;;;;;;2.20;100.00;101598.00;831076;23;1236;-53
2022/01/20 02:21:46;;;;;;;28.50;6.97;;;;;;;2.20;100.00;101592.81;830951;23;1255;-52
2022/01/20 02:22:07;;;;;;;27.13;6.25;;;;;;;2.22;100.00;101593.78;830664;23;1414;-54
2022/01/20 02:22:53;;;;;;;30.55;7.45;;;;;;;2.20;100.00;101598.00;830943;23;1264;-54
2022/01/20 02:23:21;;;;;;;26.08;6.50;;;;;;;2.20;100.00;101590.25;833914;23;1374;-54
2022/01/20 02:23:43;;;;;;;24.55;6.43;;;;;;;2.20;100.00;101593.72;831017;23;1331;-51
2022/01/20 02:24:04;;;;;;;28.02;6.60;;;;;;;2.24;100.00;101596.44;837011;23;4848;-52
2022/01/20 02:24:24;;;;;;;29.40;7.63;;;;;;;2.26;100.00;101594.78;839162;23;1212;-52
2022/01/20 02:24:45;;;;;;;29.48;7.93;;;;;;;2.22;100.00;101594.66;838683;23;916;-55
2022/01/20 02:25:17;;;;;;;27.83;7.10;;;;;;;2.24;100.00;101599.00;834609;23;1132;-50
2022/01/20 02:25:38;;;;;;;28.88;7.10;;;;;;;2.24;100.00;101599.88;838652;23;1240;-51
2022/01/20 02:25:59;;;;;;;27.38;7.15;;;;;;;2.23;100.00;101598.16;831560;23;1376;-52
2022/01/20 02:26:19;;;;;;;27.95;7.25;;;;;;;2.21;100.00;101594.59;829091;23;883;-51
2022/01/20 02:26:40;;;;;;;29.37;6.87;;;;;;;2.22;100.00;101601.53;831088;23;1558;-51
2022/01/20 02:27:01;;;;;;;25.48;6.43;;;;;;;2.22;100.00;101598.97;829665;23;4505;-51
2022/01/20 02:27:27;;;;;;;25.55;5.43;;;;;;;2.21;100.00;101602.34;828068;23;1597;-51
2022/01/20 02:27:48;;;;;;;23.47;5.73;;;;;;;2.21;100.00;101598.06;828175;23;1273;-52
2022/01/20 02:28:10;;;;;;;23.05;5.45;;;;;;;2.19;100.00;101602.28;832183;23;1748;-52
2022/01/20 02:28:31;;;;;;;21.92;4.82;;;;;;;2.20;100.00;101608.31;827286;23;1501;-53
2022/01/20 02:28:51;;;;;;;21.33;5.13;;;;;;;2.21;100.00;101605.78;831922;23;1153;-52
2022/01/20 02:29:14;;;;;;;23.50;5.15;;;;;;;2.18;100.00;101605.66;832957;23;1272;-51
2022/01/20 02:29:34;;;;;;;26.80;5.63;;;;;;;2.20;100.00;101603.16;832269;23;871;-55
2022/01/20 02:29:55;;;;;;;28.07;5.77;;;;;;;2.19;100.00;101599.69;827460;23;1239;-52
2022/01/20 02:30:18;;;;;;;25.02;5.53;;;;;;;2.21;100.00;101610.06;829485;23;4562;-51
2022/01/20 02:30:43;;;;;;;20.77;4.35;;;;;;;2.22;100.00;101601.53;827462;23;2256;-55
2022/01/20 02:31:03;;;;;;;23.86;4.90;;;;;;;2.24;100.00;101607.63;831402;23;2053;-52
2022/01/20 02:31:24;;;;;;;21.50;4.63;;;;;;;2.27;100.00;101601.72;829756;23;1190;-53
2022/01/20 02:31:45;;;;;;;24.60;5.30;;;;;;;2.31;100.00;101606.22;823927;23;1467;-51
2022/01/20 02:32:06;;;;;;;25.90;5.00;;;;;;;2.29;100.00;101600.97;830567;23;1164;-54
2022/01/20 02:32:29;;;;;;;20.85;4.68;;;;;;;2.29;100.00;101602.69;827394;23;1459;-55
2022/01/20 02:32:58;;;;;;;23.63;4.85;;;;;;;2.27;100.00;101596.56;823199;23;840;-54
2022/01/20 02:33:21;;;;;;;24.23;4.20;;;;;;;2.25;100.00;101606.81;826478;23;4494;-51
2022/01/20 02:33:43;;;;;;;23.13;4.07;;;;;;;2.26;100.00;101603.44;830084;23;1403;-51
2022/01/20 02:34:04;;;;;;;24.15;4.20;;;;;;;2.27;100.00;101607.78;830869;23;1325;-55
2022/01/20 02:34:29;;;;;;;25.20;4.60;;;;;;;2.27;100.00;101600.03;830454;23;1388;-54
2022/01/20 02:34:50;;;;;;;24.15;4.20;;;;;;;2.28;100.00;101600.91;835567;23;925;-52
2022/01/20 02:35:12;;;;;;;23.25;4.30;;;;;;;2.28;100.00;101601.78;832314;23;1551;-55
2022/01/20 02:35:39;;;;;;;22.63;4.47;;;;;;;2.26;100.00;101600.84;834273;23;1192;-52
2022/01/20 02:36:12;;;;;;;20.63;4.93;;;;;;;2.29;100.00;101605.28;833096;23;4968;-52
2022/01/20 02:36:35;;;;;;;24.63;4.97;;;;;;;2.25;100.00;101601.66;834296;23;1541;-54
2022/01/20 02:37:00;;;;;;;25.38;4.88;;;;;;;2.23;100.00;101598.16;831729;23;1448;-54
2022/01/20 02:37:20;;;;;;;22.25;5.07;;;;;;;2.22;100.00;101601.53;829232;23;1382;-54
2022/01/20 02:37:45;;;;;;;21.80;4.95;;;;;;;2.20;100.00;101598.00;831395;23;1192;-53